sensor_id;sensor_type;location;lat;lon;timestamp;pressure;altitude;pressure_sealevel;temperature;humidity
83448;BME280;73376;45.472;-73.568;2023-11-21T00:00:41;103258.75;;;2.13;33.48
83448;BME280;73376;45.472;-73.568;2023-11-21T00:03:07;103269.56;;;1.99;34.49
83448;BME280;73376;45.472;-73.568;2023-11-21T00:05:33;103264.50;;;1.95;34.29
83448;BME280;73376;45.472;-73.568;2023-11-21T00:08:00;103235.41;;;1.71;34.30
83448;BME280;73376;45.472;-73.568;2023-11-21T00:10:26;103264.78;;;1.76;35.04
83448;BME280;73376;45.472;-73.568;2023-11-21T00:12:54;103266.72;;;1.74;34.78
83448;BME280;73376;45.472;-73.568;2023-11-21T00:15:20;103238.78;;;1.46;34.72
83448;BME280;73376;45.472;-73.568;2023-11-21T00:17:47;103279.59;;;1.69;34.51
83448;BME280;73376;45.472;-73.568;2023-11-21T00:20:22;103262.56;;;1.54;34.29
83448;BME280;73376;45.472;-73.568;2023-11-21T00:22:48;103241.75;;;1.41;34.42
83448;BME280;73376;45.472;-73.568;2023-11-21T00:25:14;103235.13;;;1.33;34.55
83448;BME280;73376;45.472;-73.568;2023-11-21T00:27:42;103282.13;;;1.57;34.71
83448;BME280;73376;45.472;-73.568;2023-11-21T00:30:08;103257.16;;;1.39;35.00
83448;BME280;73376;45.472;-73.568;2023-11-21T00:32:36;103261.88;;;1.36;35.36
83448;BME280;73376;45.472;-73.568;2023-11-21T00:35:02;103276.22;;;1.36;35.25
83448;BME280;73376;45.472;-73.568;2023-11-21T00:37:28;103260.09;;;1.21;35.46
83448;BME280;73376;45.472;-73.568;2023-11-21T00:39:58;103281.88;;;1.32;35.30
83448;BME280;73376;45.472;-73.568;2023-11-21T00:42:24;103285.16;;;1.23;35.55
83448;BME280;73376;45.472;-73.568;2023-11-21T00:44:50;103258.53;;;1.02;35.59
83448;BME280;73376;45.472;-73.568;2023-11-21T00:47:16;103294.44;;;1.17;35.39
83448;BME280;73376;45.472;-73.568;2023-11-21T00:49:42;103231.31;;;0.77;35.58
83448;BME280;73376;45.472;-73.568;2023-11-21T00:52:08;103275.13;;;0.94;35.77
83448;BME280;73376;45.472;-73.568;2023-11-21T00:54:37;103237.84;;;0.73;36.09
83448;BME280;73376;45.472;-73.568;2023-11-21T00:57:03;103251.38;;;0.71;35.95
83448;BME280;73376;45.472;-73.568;2023-11-21T00:59:29;103256.09;;;0.67;36.01
83448;BME280;73376;45.472;-73.568;2023-11-21T01:01:55;103303.38;;;0.87;36.21
83448;BME280;73376;45.472;-73.568;2023-11-21T01:04:22;103309.91;;;0.83;36.39
83448;BME280;73376;45.472;-73.568;2023-11-21T01:06:48;103295.78;;;0.64;36.60
83448;BME280;73376;45.472;-73.568;2023-11-21T01:09:14;103307.16;;;0.69;36.47
83448;BME280;73376;45.472;-73.568;2023-11-21T01:11:39;103316.09;;;0.69;36.50
83448;BME280;73376;45.472;-73.568;2023-11-21T01:14:05;103282.69;;;0.42;37.05
83448;BME280;73376;45.472;-73.568;2023-11-21T01:16:34;103325.66;;;0.59;36.69
83448;BME280;73376;45.472;-73.568;2023-11-21T01:19:03;103273.47;;;0.30;36.93
83448;BME280;73376;45.472;-73.568;2023-11-21T01:21:33;103230.72;;;-0.06;37.22
83448;BME280;73376;45.472;-73.568;2023-11-21T01:24:01;103302.03;;;0.33;36.64
83448;BME280;73376;45.472;-73.568;2023-11-21T01:26:33;103276.88;;;0.18;36.78
83448;BME280;73376;45.472;-73.568;2023-11-21T01:28:59;103329.31;;;0.42;36.75
83448;BME280;73376;45.472;-73.568;2023-11-21T01:31:25;103324.44;;;0.33;36.86
83448;BME280;73376;45.472;-73.568;2023-11-21T01:33:57;103323.91;;;0.27;37.26
83448;BME280;73376;45.472;-73.568;2023-11-21T01:36:23;103297.94;;;0.10;37.22
83448;BME280;73376;45.472;-73.568;2023-11-21T01:38:55;103318.63;;;0.25;37.25
83448;BME280;73376;45.472;-73.568;2023-11-21T01:41:26;103292.13;;;0.02;37.49
83448;BME280;73376;45.472;-73.568;2023-11-21T01:43:55;103296.81;;;-0.02;37.16
83448;BME280;73376;45.472;-73.568;2023-11-21T01:46:21;103309.78;;;0.07;37.28
83448;BME280;73376;45.472;-73.568;2023-11-21T01:48:48;103326.84;;;0.06;37.41
83448;BME280;73376;45.472;-73.568;2023-11-21T01:51:15;103297.41;;;-0.13;37.48
83448;BME280;73376;45.472;-73.568;2023-11-21T01:53:42;103322.16;;;-0.06;37.34
83448;BME280;73376;45.472;-73.568;2023-11-21T01:56:08;103319.78;;;-0.12;37.27
83448;BME280;73376;45.472;-73.568;2023-11-21T01:58:35;103332.97;;;-0.08;37.34
83448;BME280;73376;45.472;-73.568;2023-11-21T02:01:06;103325.41;;;-0.17;37.80
83448;BME280;73376;45.472;-73.568;2023-11-21T02:03:32;103327.31;;;-0.19;37.85
83448;BME280;73376;45.472;-73.568;2023-11-21T02:05:58;103332.84;;;-0.22;37.89
83448;BME280;73376;45.472;-73.568;2023-11-21T02:08:27;103310.25;;;-0.35;38.00
83448;BME280;73376;45.472;-73.568;2023-11-21T02:10:53;103308.53;;;-0.36;38.04
83448;BME280;73376;45.472;-73.568;2023-11-21T02:13:19;103280.34;;;-0.62;38.17
83448;BME280;73376;45.472;-73.568;2023-11-21T02:15:45;103317.94;;;-0.45;38.16
83448;BME280;73376;45.472;-73.568;2023-11-21T02:18:13;103333.84;;;-0.40;38.16
83448;BME280;73376;45.472;-73.568;2023-11-21T02:20:40;103276.88;;;-0.82;38.26
83448;BME280;73376;45.472;-73.568;2023-11-21T02:23:08;103333.66;;;-0.55;38.59
83448;BME280;73376;45.472;-73.568;2023-11-21T02:25:34;103317.25;;;-0.66;38.64
83448;BME280;73376;45.472;-73.568;2023-11-21T02:28:03;103341.91;;;-0.58;38.86
83448;BME280;73376;45.472;-73.568;2023-11-21T02:30:30;103319.47;;;-0.74;38.62
83448;BME280;73376;45.472;-73.568;2023-11-21T02:33:02;103316.31;;;-0.82;39.17
83448;BME280;73376;45.472;-73.568;2023-11-21T02:35:31;103308.66;;;-0.90;39.03
83448;BME280;73376;45.472;-73.568;2023-11-21T02:37:57;103325.22;;;-0.82;39.62
83448;BME280;73376;45.472;-73.568;2023-11-21T02:40:23;103307.47;;;-1.02;39.77
83448;BME280;73376;45.472;-73.568;2023-11-21T02:42:55;103334.63;;;-0.90;39.74
83448;BME280;73376;45.472;-73.568;2023-11-21T02:45:23;103349.78;;;-0.89;40.39
83448;BME280;73376;45.472;-73.568;2023-11-21T02:47:49;103327.44;;;-1.07;40.33
83448;BME280;73376;45.472;-73.568;2023-11-21T02:50:16;103287.69;;;-1.35;40.38
83448;BME280;73376;45.472;-73.568;2023-11-21T02:52:44;103274.16;;;-1.51;40.41
83448;BME280;73376;45.472;-73.568;2023-11-21T02:55:11;103356.88;;;-1.06;40.38
83448;BME280;73376;45.472;-73.568;2023-11-21T02:57:39;103327.56;;;-1.28;40.78
83448;BME280;73376;45.472;-73.568;2023-11-21T03:00:06;103335.50;;;-1.26;40.55
83448;BME280;73376;45.472;-73.568;2023-11-21T03:02:41;103357.34;;;-1.15;40.44
83448;BME280;73376;45.472;-73.568;2023-11-21T03:05:07;103350.53;;;-1.22;40.72
83448;BME280;73376;45.472;-73.568;2023-11-21T03:07:38;103282.38;;;-1.73;40.81
83448;BME280;73376;45.472;-73.568;2023-11-21T03:10:05;103357.22;;;-1.31;40.80
83448;BME280;73376;45.472;-73.568;2023-11-21T03:12:31;103287.66;;;-1.72;40.86
83448;BME280;73376;45.472;-73.568;2023-11-21T03:14:57;103357.22;;;-1.31;40.82
83448;BME280;73376;45.472;-73.568;2023-11-21T03:17:23;103360.91;;;-1.33;41.18
83448;BME280;73376;45.472;-73.568;2023-11-21T03:19:50;103348.81;;;-1.42;41.30
83448;BME280;73376;45.472;-73.568;2023-11-21T03:22:17;103345.41;;;-1.46;41.28
83448;BME280;73376;45.472;-73.568;2023-11-21T03:24:44;103361.28;;;-1.41;41.33
83448;BME280;73376;45.472;-73.568;2023-11-21T03:27:10;103363.16;;;-1.43;41.18
83448;BME280;73376;45.472;-73.568;2023-11-21T03:29:36;103379.41;;;-1.46;41.37
83448;BME280;73376;45.472;-73.568;2023-11-21T03:32:02;103371.44;;;-1.48;41.05
83448;BME280;73376;45.472;-73.568;2023-11-21T03:34:28;103297.66;;;-1.94;41.19
83448;BME280;73376;45.472;-73.568;2023-11-21T03:36:54;103334.53;;;-1.80;41.21
83448;BME280;73376;45.472;-73.568;2023-11-21T03:39:21;103383.41;;;-1.55;41.14
83448;BME280;73376;45.472;-73.568;2023-11-21T03:41:48;103378.19;;;-1.58;41.10
83448;BME280;73376;45.472;-73.568;2023-11-21T03:44:16;103340.84;;;-1.81;41.36
83448;BME280;73376;45.472;-73.568;2023-11-21T03:46:43;103370.50;;;-1.65;41.36
83448;BME280;73376;45.472;-73.568;2023-11-21T03:49:09;103324.53;;;-1.96;41.40
83448;BME280;73376;45.472;-73.568;2023-11-21T03:51:37;103349.16;;;-1.87;41.69
83448;BME280;73376;45.472;-73.568;2023-11-21T03:54:03;103363.38;;;-1.85;41.54
83448;BME280;73376;45.472;-73.568;2023-11-21T03:56:29;103387.88;;;-1.74;43.25
83448;BME280;73376;45.472;-73.568;2023-11-21T03:58:55;103369.63;;;-1.85;42.82
83448;BME280;73376;45.472;-73.568;2023-11-21T04:01:24;103380.28;;;-1.83;42.93
83448;BME280;73376;45.472;-73.568;2023-11-21T04:03:50;103357.84;;;-2.01;43.15
83448;BME280;73376;45.472;-73.568;2023-11-21T04:06:19;103384.03;;;-1.87;42.74
83448;BME280;73376;45.472;-73.568;2023-11-21T04:08:45;103315.09;;;-2.23;43.11
83448;BME280;73376;45.472;-73.568;2023-11-21T04:11:11;103341.41;;;-2.12;43.41
83448;BME280;73376;45.472;-73.568;2023-11-21T04:13:38;103366.75;;;-2.01;43.18
83448;BME280;73376;45.472;-73.568;2023-11-21T04:16:06;103368.66;;;-2.03;43.17
83448;BME280;73376;45.472;-73.568;2023-11-21T04:18:33;103339.94;;;-2.20;43.62
83448;BME280;73376;45.472;-73.568;2023-11-21T04:21:02;103335.59;;;-2.22;43.35
83448;BME280;73376;45.472;-73.568;2023-11-21T04:23:30;103345.34;;;-2.21;43.30
83448;BME280;73376;45.472;-73.568;2023-11-21T04:25:57;103367.19;;;-2.10;44.09
83448;BME280;73376;45.472;-73.568;2023-11-21T04:28:24;103285.69;;;-2.64;43.95
83448;BME280;73376;45.472;-73.568;2023-11-21T04:30:50;103359.47;;;-2.18;44.16
83448;BME280;73376;45.472;-73.568;2023-11-21T04:33:16;103372.00;;;-2.18;44.12
83448;BME280;73376;45.472;-73.568;2023-11-21T04:35:42;103351.94;;;-2.28;43.91
83448;BME280;73376;45.472;-73.568;2023-11-21T04:38:08;103339.09;;;-2.41;44.05
83448;BME280;73376;45.472;-73.568;2023-11-21T04:40:36;103374.78;;;-2.20;44.31
83448;BME280;73376;45.472;-73.568;2023-11-21T04:43:02;103337.41;;;-2.43;44.35
83448;BME280;73376;45.472;-73.568;2023-11-21T04:45:29;103376.78;;;-2.25;44.36
83448;BME280;73376;45.472;-73.568;2023-11-21T04:47:57;103347.28;;;-2.44;44.35
83448;BME280;73376;45.472;-73.568;2023-11-21T04:50:23;103364.84;;;-2.38;44.48
83448;BME280;73376;45.472;-73.568;2023-11-21T04:52:52;103362.34;;;-2.41;44.85
83448;BME280;73376;45.472;-73.568;2023-11-21T04:55:19;103332.88;;;-2.62;44.98
83448;BME280;73376;45.472;-73.568;2023-11-21T04:57:45;103358.63;;;-2.59;44.94
83448;BME280;73376;45.472;-73.568;2023-11-21T05:00:12;103384.94;;;-2.48;45.54
83448;BME280;73376;45.472;-73.568;2023-11-21T05:02:40;103402.56;;;-2.43;45.88
83448;BME280;73376;45.472;-73.568;2023-11-21T05:05:07;103338.19;;;-2.82;45.97
83448;BME280;73376;45.472;-73.568;2023-11-21T05:07:36;103393.88;;;-2.48;46.71
83448;BME280;73376;45.472;-73.568;2023-11-21T05:10:04;103353.00;;;-2.73;46.37
83448;BME280;73376;45.472;-73.568;2023-11-21T05:12:33;103392.25;;;-2.52;45.92
83448;BME280;73376;45.472;-73.568;2023-11-21T05:15:04;103314.06;;;-3.02;45.99
83448;BME280;73376;45.472;-73.568;2023-11-21T05:17:38;103396.00;;;-2.56;46.29
83448;BME280;73376;45.472;-73.568;2023-11-21T05:20:11;103355.28;;;-2.84;46.54
83448;BME280;73376;45.472;-73.568;2023-11-21T05:22:38;103400.69;;;-2.61;46.88
83448;BME280;73376;45.472;-73.568;2023-11-21T05:25:04;103405.22;;;-2.63;46.45
83448;BME280;73376;45.472;-73.568;2023-11-21T05:27:31;103392.19;;;-2.71;46.69
83448;BME280;73376;45.472;-73.568;2023-11-21T05:29:57;103357.25;;;-2.90;46.88
83448;BME280;73376;45.472;-73.568;2023-11-21T05:32:26;103365.13;;;-2.85;47.68
83448;BME280;73376;45.472;-73.568;2023-11-21T05:34:55;103359.81;;;-2.87;47.64
83448;BME280;73376;45.472;-73.568;2023-11-21T05:37:21;103366.16;;;-2.89;48.09
83448;BME280;73376;45.472;-73.568;2023-11-21T05:39:49;103351.25;;;-2.95;48.22
83448;BME280;73376;45.472;-73.568;2023-11-21T05:42:15;103359.28;;;-2.95;47.59
83448;BME280;73376;45.472;-73.568;2023-11-21T05:44:42;103372.41;;;-2.89;47.95
83448;BME280;73376;45.472;-73.568;2023-11-21T05:47:11;103351.38;;;-2.98;47.99
83448;BME280;73376;45.472;-73.568;2023-11-21T05:49:39;103326.06;;;-3.11;48.15
83448;BME280;73376;45.472;-73.568;2023-11-21T05:52:10;103273.13;;;-3.47;48.36
83448;BME280;73376;45.472;-73.568;2023-11-21T05:54:36;103315.09;;;-3.27;48.60
83448;BME280;73376;45.472;-73.568;2023-11-21T05:57:02;103340.06;;;-3.04;48.38
83448;BME280;73376;45.472;-73.568;2023-11-21T05:59:28;103297.44;;;-3.31;47.95
83448;BME280;73376;45.472;-73.568;2023-11-21T06:01:54;103327.03;;;-3.14;48.25
83448;BME280;73376;45.472;-73.568;2023-11-21T06:04:20;103313.31;;;-3.26;48.34
83448;BME280;73376;45.472;-73.568;2023-11-21T06:06:51;103359.41;;;-2.98;48.76
83448;BME280;73376;45.472;-73.568;2023-11-21T06:09:17;103366.63;;;-3.00;48.92
83448;BME280;73376;45.472;-73.568;2023-11-21T06:11:43;103350.34;;;-3.16;48.69
83448;BME280;73376;45.472;-73.568;2023-11-21T06:14:09;103352.94;;;-3.14;48.75
83448;BME280;73376;45.472;-73.568;2023-11-21T06:16:36;103327.69;;;-3.29;48.76
83448;BME280;73376;45.472;-73.568;2023-11-21T06:19:02;103357.22;;;-3.10;49.14
83448;BME280;73376;45.472;-73.568;2023-11-21T06:21:28;103293.63;;;-3.46;49.73
83448;BME280;73376;45.472;-73.568;2023-11-21T06:23:54;103357.44;;;-3.15;50.00
83448;BME280;73376;45.472;-73.568;2023-11-21T06:26:22;103329.66;;;-3.34;49.91
83448;BME280;73376;45.472;-73.568;2023-11-21T06:28:52;103300.94;;;-3.51;50.44
83448;BME280;73376;45.472;-73.568;2023-11-21T06:31:21;103321.84;;;-3.39;50.09
83448;BME280;73376;45.472;-73.568;2023-11-21T06:33:50;103350.72;;;-3.25;50.31
83448;BME280;73376;45.472;-73.568;2023-11-21T06:36:17;103346.34;;;-3.27;50.69
83448;BME280;73376;45.472;-73.568;2023-11-21T06:38:43;103303.09;;;-3.61;51.13
83448;BME280;73376;45.472;-73.568;2023-11-21T06:41:11;103349.13;;;-3.30;51.12
83448;BME280;73376;45.472;-73.568;2023-11-21T06:43:39;103351.03;;;-3.33;51.06
83448;BME280;73376;45.472;-73.568;2023-11-21T06:46:05;103319.97;;;-3.59;51.18
83448;BME280;73376;45.472;-73.568;2023-11-21T06:48:31;103337.59;;;-3.53;51.56
83448;BME280;73376;45.472;-73.568;2023-11-21T06:50:57;103320.00;;;-3.60;50.99
83448;BME280;73376;45.472;-73.568;2023-11-21T06:53:23;103337.59;;;-3.53;51.61
83448;BME280;73376;45.472;-73.568;2023-11-21T06:55:50;103349.88;;;-3.49;51.55
83448;BME280;73376;45.472;-73.568;2023-11-21T06:58:18;103357.78;;;-3.46;52.33
83448;BME280;73376;45.472;-73.568;2023-11-21T07:00:44;103339.66;;;-3.61;51.91
83448;BME280;73376;45.472;-73.568;2023-11-21T07:03:12;103362.44;;;-3.51;52.18
83448;BME280;73376;45.472;-73.568;2023-11-21T07:05:38;103379.41;;;-3.52;53.34
83448;BME280;73376;45.472;-73.568;2023-11-21T07:08:04;103367.34;;;-3.62;53.17
83448;BME280;73376;45.472;-73.568;2023-11-21T07:10:30;103378.84;;;-3.60;52.98
83448;BME280;73376;45.472;-73.568;2023-11-21T07:12:57;103365.72;;;-3.66;53.44
83448;BME280;73376;45.472;-73.568;2023-11-21T07:15:23;103363.28;;;-3.72;53.14
83448;BME280;73376;45.472;-73.568;2023-11-21T07:17:49;103381.66;;;-3.63;53.67
83448;BME280;73376;45.472;-73.568;2023-11-21T07:20:16;103313.03;;;-4.10;53.19
83448;BME280;73376;45.472;-73.568;2023-11-21T07:22:42;103342.72;;;-3.94;53.70
83448;BME280;73376;45.472;-73.568;2023-11-21T07:25:09;103356.72;;;-3.87;53.60
83448;BME280;73376;45.472;-73.568;2023-11-21T07:27:35;103381.91;;;-3.71;53.68
83448;BME280;73376;45.472;-73.568;2023-11-21T07:30:03;103359.41;;;-3.87;53.29
83448;BME280;73376;45.472;-73.568;2023-11-21T07:32:31;103347.19;;;-3.94;53.78
83448;BME280;73376;45.472;-73.568;2023-11-21T07:34:57;103316.69;;;-4.12;53.86
83448;BME280;73376;45.472;-73.568;2023-11-21T07:37:27;103359.34;;;-3.86;53.87
83448;BME280;73376;45.472;-73.568;2023-11-21T07:39:55;103338.53;;;-4.01;53.50
83448;BME280;73376;45.472;-73.568;2023-11-21T07:42:27;103346.50;;;-3.99;53.46
83448;BME280;73376;45.472;-73.568;2023-11-21T07:44:53;103378.91;;;-3.85;53.37
83448;BME280;73376;45.472;-73.568;2023-11-21T07:47:18;103345.88;;;-4.08;53.48
83448;BME280;73376;45.472;-73.568;2023-11-21T07:49:44;103375.59;;;-3.92;53.58
83448;BME280;73376;45.472;-73.568;2023-11-21T07:52:12;103385.34;;;-3.91;53.65
83448;BME280;73376;45.472;-73.568;2023-11-21T07:54:38;103375.81;;;-3.98;53.87
83448;BME280;73376;45.472;-73.568;2023-11-21T07:57:04;103387.34;;;-3.96;54.28
83448;BME280;73376;45.472;-73.568;2023-11-21T07:59:33;103367.34;;;-4.09;54.35
83448;BME280;73376;45.472;-73.568;2023-11-21T08:01:59;103393.75;;;-4.01;55.10
83448;BME280;73376;45.472;-73.568;2023-11-21T08:04:27;103366.75;;;-4.17;55.31
83448;BME280;73376;45.472;-73.568;2023-11-21T08:06:53;103338.03;;;-4.36;55.45
83448;BME280;73376;45.472;-73.568;2023-11-21T08:09:21;103374.13;;;-4.24;56.40
83448;BME280;73376;45.472;-73.568;2023-11-21T08:11:51;103365.25;;;-4.24;56.13
83448;BME280;73376;45.472;-73.568;2023-11-21T08:14:19;103371.50;;;-4.25;55.87
83448;BME280;73376;45.472;-73.568;2023-11-21T08:16:45;103358.31;;;-4.30;56.00
83448;BME280;73376;45.472;-73.568;2023-11-21T08:19:12;103359.19;;;-4.30;56.12
83448;BME280;73376;45.472;-73.568;2023-11-21T08:21:38;103305.16;;;-4.61;57.76
83448;BME280;73376;45.472;-73.568;2023-11-21T08:24:08;103374.13;;;-4.24;58.73
83448;BME280;73376;45.472;-73.568;2023-11-21T08:26:37;103335.81;;;-4.48;58.45
83448;BME280;73376;45.472;-73.568;2023-11-21T08:29:03;103368.06;;;-4.29;59.35
83448;BME280;73376;45.472;-73.568;2023-11-21T08:31:29;103346.50;;;-4.48;59.16
83448;BME280;73376;45.472;-73.568;2023-11-21T08:33:56;103367.47;;;-4.37;58.36
83448;BME280;73376;45.472;-73.568;2023-11-21T08:36:24;103338.84;;;-4.59;59.41
83448;BME280;73376;45.472;-73.568;2023-11-21T08:38:50;103364.91;;;-4.40;58.53
83448;BME280;73376;45.472;-73.568;2023-11-21T08:41:20;103348.41;;;-4.52;58.46
83448;BME280;73376;45.472;-73.568;2023-11-21T08:43:52;103352.81;;;-4.50;58.38
83448;BME280;73376;45.472;-73.568;2023-11-21T08:46:20;103345.09;;;-4.58;58.04
83448;BME280;73376;45.472;-73.568;2023-11-21T08:48:48;103359.13;;;-4.53;57.62
83448;BME280;73376;45.472;-73.568;2023-11-21T08:51:17;103360.75;;;-4.49;58.03
83448;BME280;73376;45.472;-73.568;2023-11-21T08:53:44;103359.09;;;-4.52;58.55
83448;BME280;73376;45.472;-73.568;2023-11-21T08:56:13;103359.22;;;-4.56;58.32
83448;BME280;73376;45.472;-73.568;2023-11-21T08:58:44;103314.81;;;-4.84;59.36
83448;BME280;73376;45.472;-73.568;2023-11-21T09:01:10;103302.13;;;-5.02;59.29
83448;BME280;73376;45.472;-73.568;2023-11-21T09:03:37;103354.94;;;-4.60;59.30
83448;BME280;73376;45.472;-73.568;2023-11-21T09:06:03;103307.13;;;-4.93;58.92
83448;BME280;73376;45.472;-73.568;2023-11-21T09:08:30;103356.88;;;-4.65;58.89
83448;BME280;73376;45.472;-73.568;2023-11-21T09:10:56;103364.00;;;-4.66;58.62
83448;BME280;73376;45.472;-73.568;2023-11-21T09:13:22;103343.13;;;-4.80;58.47
83448;BME280;73376;45.472;-73.568;2023-11-21T09:15:50;103355.41;;;-4.74;58.47
83448;BME280;73376;45.472;-73.568;2023-11-21T09:18:16;103343.22;;;-4.81;58.86
83448;BME280;73376;45.472;-73.568;2023-11-21T09:20:45;103319.66;;;-4.95;59.04
83448;BME280;73376;45.472;-73.568;2023-11-21T09:23:11;103349.31;;;-4.78;59.11
83448;BME280;73376;45.472;-73.568;2023-11-21T09:25:37;103309.28;;;-5.03;58.53
83448;BME280;73376;45.472;-73.568;2023-11-21T09:28:05;103333.78;;;-4.91;58.51
83448;BME280;73376;45.472;-73.568;2023-11-21T09:30:34;103341.91;;;-4.96;58.51
83448;BME280;73376;45.472;-73.568;2023-11-21T09:33:02;103319.47;;;-5.15;58.46
83448;BME280;73376;45.472;-73.568;2023-11-21T09:35:28;103364.09;;;-4.94;58.75
83448;BME280;73376;45.472;-73.568;2023-11-21T09:37:54;103302.84;;;-5.24;58.33
83448;BME280;73376;45.472;-73.568;2023-11-21T09:40:23;103326.13;;;-5.02;59.16
83448;BME280;73376;45.472;-73.568;2023-11-21T09:42:56;103345.50;;;-4.97;58.82
83448;BME280;73376;45.472;-73.568;2023-11-21T09:45:26;103340.28;;;-5.00;58.57
83448;BME280;73376;45.472;-73.568;2023-11-21T09:47:54;103341.22;;;-5.01;58.72
83448;BME280;73376;45.472;-73.568;2023-11-21T09:50:24;103322.13;;;-5.15;59.12
83448;BME280;73376;45.472;-73.568;2023-11-21T09:52:57;103346.81;;;-5.09;61.14
83448;BME280;73376;45.472;-73.568;2023-11-21T09:55:26;103336.28;;;-5.13;60.58
83448;BME280;73376;45.472;-73.568;2023-11-21T09:57:53;103334.50;;;-5.13;60.24
83448;BME280;73376;45.472;-73.568;2023-11-21T10:00:21;103311.97;;;-5.31;60.74
83448;BME280;73376;45.472;-73.568;2023-11-21T10:02:49;103331.94;;;-5.16;60.43
83448;BME280;73376;45.472;-73.568;2023-11-21T10:05:16;103319.72;;;-5.23;60.06
83448;BME280;73376;45.472;-73.568;2023-11-21T10:07:46;103341.84;;;-5.19;60.00
83448;BME280;73376;45.472;-73.568;2023-11-21T10:10:13;103332.25;;;-5.27;60.82
83448;BME280;73376;45.472;-73.568;2023-11-21T10:12:48;103341.06;;;-5.23;60.31
83448;BME280;73376;45.472;-73.568;2023-11-21T10:15:16;103310.59;;;-5.44;60.34
83448;BME280;73376;45.472;-73.568;2023-11-21T10:17:47;103338.78;;;-5.35;60.87
83448;BME280;73376;45.472;-73.568;2023-11-21T10:20:14;103301.38;;;-5.60;61.08
83448;BME280;73376;45.472;-73.568;2023-11-21T10:22:43;103351.94;;;-5.31;61.15
83448;BME280;73376;45.472;-73.568;2023-11-21T10:25:09;103340.47;;;-5.33;61.10
83448;BME280;73376;45.472;-73.568;2023-11-21T10:27:46;103327.19;;;-5.34;61.32
83448;BME280;73376;45.472;-73.568;2023-11-21T10:30:12;103285.44;;;-5.62;61.09
83448;BME280;73376;45.472;-73.568;2023-11-21T10:32:42;103271.53;;;-5.72;61.78
83448;BME280;73376;45.472;-73.568;2023-11-21T10:35:11;103313.28;;;-5.44;62.71
83448;BME280;73376;45.472;-73.568;2023-11-21T10:37:38;103299.94;;;-5.44;62.63
83448;BME280;73376;45.472;-73.568;2023-11-21T10:40:07;103306.22;;;-5.45;63.31
83448;BME280;73376;45.472;-73.568;2023-11-21T10:42:40;103300.19;;;-5.52;64.35
83448;BME280;73376;45.472;-73.568;2023-11-21T10:45:12;103294.78;;;-5.49;64.25
83448;BME280;73376;45.472;-73.568;2023-11-21T10:47:41;103285.25;;;-5.56;63.56
83448;BME280;73376;45.472;-73.568;2023-11-21T10:50:07;103278.50;;;-5.67;64.62
83448;BME280;73376;45.472;-73.568;2023-11-21T10:52:37;103328.66;;;-5.52;63.80
83448;BME280;73376;45.472;-73.568;2023-11-21T10:55:25;103315.34;;;-5.54;63.66
83448;BME280;73376;45.472;-73.568;2023-11-21T10:57:53;103327.88;;;-5.56;63.37
83448;BME280;73376;45.472;-73.568;2023-11-21T11:00:20;103320.03;;;-5.60;63.50
83448;BME280;73376;45.472;-73.568;2023-11-21T11:02:52;103323.69;;;-5.64;63.93
83448;BME280;73376;45.472;-73.568;2023-11-21T11:05:20;103316.63;;;-5.65;63.95
83448;BME280;73376;45.472;-73.568;2023-11-21T11:07:51;103324.56;;;-5.64;63.68
83448;BME280;73376;45.472;-73.568;2023-11-21T11:10:26;103336.16;;;-5.65;63.62
83448;BME280;73376;45.472;-73.568;2023-11-21T11:12:54;103325.78;;;-5.74;62.99
83448;BME280;73376;45.472;-73.568;2023-11-21T11:15:21;103323.22;;;-5.77;63.49
83448;BME280;73376;45.472;-73.568;2023-11-21T11:17:48;103216.84;;;-6.39;64.08
83448;BME280;73376;45.472;-73.568;2023-11-21T11:20:15;103321.28;;;-5.72;63.79
83448;BME280;73376;45.472;-73.568;2023-11-21T11:25:51;103326.16;;;-5.86;63.31
83448;BME280;73376;45.472;-73.568;2023-11-21T11:28:29;103298.22;;;-6.01;63.50
83448;BME280;73376;45.472;-73.568;2023-11-21T11:31:21;103295.53;;;-6.00;64.65
83448;BME280;73376;45.472;-73.568;2023-11-21T11:33:55;103326.94;;;-5.83;65.04
83448;BME280;73376;45.472;-73.568;2023-11-21T11:36:40;103299.56;;;-5.88;65.12
83448;BME280;73376;45.472;-73.568;2023-11-21T11:41:58;103284.19;;;-6.06;64.64
83448;BME280;73376;45.472;-73.568;2023-11-21T11:47:31;103296.94;;;-5.89;65.12
83448;BME280;73376;45.472;-73.568;2023-11-21T11:50:08;103257.72;;;-6.12;64.75
83448;BME280;73376;45.472;-73.568;2023-11-21T11:52:48;103290.00;;;-5.93;65.64
83448;BME280;73376;45.472;-73.568;2023-11-21T11:55:20;103258.50;;;-6.09;64.73
83448;BME280;73376;45.472;-73.568;2023-11-21T11:57:47;103289.16;;;-5.94;64.65
83448;BME280;73376;45.472;-73.568;2023-11-21T12:00:21;103195.00;;;-6.51;64.37
83448;BME280;73376;45.472;-73.568;2023-11-21T12:02:56;103294.50;;;-5.96;64.31
83448;BME280;73376;45.472;-73.568;2023-11-21T12:05:25;103285.81;;;-6.02;64.59
83448;BME280;73376;45.472;-73.568;2023-11-21T12:07:59;103297.13;;;-5.94;65.12
83448;BME280;73376;45.472;-73.568;2023-11-21T12:10:27;103300.66;;;-5.93;65.27
83448;BME280;73376;45.472;-73.568;2023-11-21T12:12:55;103298.03;;;-5.95;65.42
83448;BME280;73376;45.472;-73.568;2023-11-21T12:15:22;103300.88;;;-6.01;64.99
83448;BME280;73376;45.472;-73.568;2023-11-21T12:17:49;103299.97;;;-6.00;65.03
83448;BME280;73376;45.472;-73.568;2023-11-21T12:20:18;103265.09;;;-6.21;65.24
83448;BME280;73376;45.472;-73.568;2023-11-21T12:22:49;103303.41;;;-5.97;65.03
83448;BME280;73376;45.472;-73.568;2023-11-21T12:25:24;103297.34;;;-6.02;65.24
83448;BME280;73376;45.472;-73.568;2023-11-21T12:27:54;103298.91;;;-5.95;65.41
83448;BME280;73376;45.472;-73.568;2023-11-21T12:30:22;103312.88;;;-5.88;65.65
83448;BME280;73376;45.472;-73.568;2023-11-21T12:32:53;103313.72;;;-5.86;66.70
83448;BME280;73376;45.472;-73.568;2023-11-21T12:35:20;103238.72;;;-6.28;66.98
83448;BME280;73376;45.472;-73.568;2023-11-21T12:37:49;103313.72;;;-5.86;67.18
83448;BME280;73376;45.472;-73.568;2023-11-21T12:40:18;103292.03;;;-6.02;66.76
83448;BME280;73376;45.472;-73.568;2023-11-21T12:42:48;103299.81;;;-5.94;66.30